Jonesboro, AR (72402)

4:36 AM CST on February 06, 2016 (GMT -0600)
South Jonesboro | | Change Station
CLOSE
Current Station
Personal Weather Station
Location: Jonesboro, AR
Elevation: 358 ft
Nearby Weather Stations

Elev 358 ft 35.82 °N, 90.73 °W | Updated 14 minutes ago

Clear
Clear
32.9 °F
Feels Like 33 °F
N
0.0
Wind Variable Wind from SSE

Today
High -- | Low -- °F
--% Chance of Precip.
Yesterday
High -- | Low -- °F
Precip. -- in
Pressure 30.35 in
Visibility 10.0 miles
Clouds Clear
Windchill 33 °F
Dew Point 26 °F
Humidity 75%
Rainfall 0.00 in
Snow Depth Not available.
6:59 AM 5:35 PM
Waning Crescent, 6% visible
METAR KJBR 060953Z AUTO 00000KT 10SM CLR M01/M04 A3035 RMK AO2 SLP278 T10111039
Pressure 30.35 in
Visibility 10.0 miles
Clouds Clear
Windchill 33 °F
Dew Point 26 °F
Humidity 75%
Rainfall 0.00 in
Snow Depth Not available.
6:59 AM 5:35 PM
Waning Crescent, 6% visible
METAR KJBR 060953Z AUTO 00000KT 10SM CLR M01/M04 A3035 RMK AO2 SLP278 T10111039

10-Day Weather Forecast

Almanac

Astronomy

Feb. 06, 2016 Rise Set
Actual Time
Civil Twilight
Nautical Twilight
Astronomical Twilight
Moon
Length of Visible Light
Length of Day
Tomorrow will be .
, % of the Moon is Illuminated

Today's Extremes

State Highs State Lows

Community

WunderPhotos

Upload Photos

1,890,933 photos uploaded!

WunderBlog® & News

Nearby

Air Quality

  Air Quality AQ Index Pollutant
Not available.

Snow Depth

Station Depth Elevation

Earthquake Activity

City Distance Mag. Time & Date
Minimum magnitude displayed is 2.5.

Coastal Water Temperatures

Place Temperature

Stations

Nearby Weather Stations

Station Location Temp. Windchill Dew Point Humidity Wind Precip. Elev Updated Type
                   

Watches & Warnings

There are currently no watches in effect.